createdAt,value
2022-10-30T00:01:38.126Z,17.70
2022-10-30T00:04:05.409Z,17.70
2022-10-30T00:06:32.077Z,17.60
2022-10-30T00:08:58.955Z,17.60
2022-10-30T00:11:25.688Z,17.70
2022-10-30T00:13:52.387Z,17.70
2022-10-30T00:16:19.092Z,17.70
2022-10-30T00:18:45.768Z,17.70
2022-10-30T00:21:15.273Z,17.70
2022-10-30T00:23:49.742Z,17.70
2022-10-30T00:26:17.383Z,17.70
2022-10-30T00:28:44.083Z,17.70
2022-10-30T00:31:11.105Z,17.70
2022-10-30T00:33:37.723Z,17.60
2022-10-30T00:36:05.190Z,17.50
2022-10-30T00:38:32.497Z,17.50
2022-10-30T00:40:59.285Z,17.40
2022-10-30T00:43:30.981Z,17.40
2022-10-30T00:46:02.571Z,17.40
2022-10-30T00:48:29.472Z,17.40
2022-10-30T00:50:57.946Z,17.40
2022-10-30T00:53:25.113Z,17.30
2022-10-30T00:55:56.476Z,17.30
2022-10-30T00:58:46.745Z,17.30
2022-10-30T01:01:19.349Z,17.20
2022-10-30T01:03:46.940Z,17.20
2022-10-30T01:06:16.138Z,17.10
2022-10-30T01:08:43.867Z,17.10
2022-10-30T01:11:11.919Z,17.00
2022-10-30T01:13:41.226Z,17.00
2022-10-30T01:16:14.192Z,16.90
2022-10-30T01:19:14.484Z,16.80
2022-10-30T01:22:10.764Z,16.70
2022-10-30T01:24:57.913Z,16.70
2022-10-30T01:27:53.797Z,16.60
2022-10-30T01:30:51.264Z,16.50
2022-10-30T01:33:26.190Z,16.40
2022-10-30T01:36:16.931Z,16.40
2022-10-30T01:39:18.974Z,16.30
2022-10-30T01:41:45.890Z,16.20
2022-10-30T01:44:24.514Z,16.10
2022-10-30T01:47:06.243Z,16.00
2022-10-30T01:49:45.123Z,16.00
2022-10-30T01:52:39.556Z,15.90
2022-10-30T01:55:37.162Z,15.80
2022-10-30T01:58:31.558Z,15.80
2022-10-30T02:01:00.386Z,15.80
2022-10-30T02:03:27.785Z,15.70
2022-10-30T02:05:54.913Z,15.70
2022-10-30T02:08:22.571Z,15.60
2022-10-30T02:10:52.663Z,15.60
2022-10-30T02:13:20.090Z,15.50
2022-10-30T02:15:48.786Z,15.40
2022-10-30T02:18:15.878Z,15.40
2022-10-30T02:20:42.661Z,15.30
2022-10-30T02:23:13.580Z,15.20
2022-10-30T02:25:40.340Z,15.10
2022-10-30T02:28:07.286Z,15.10
2022-10-30T02:30:34.078Z,15.00
2022-10-30T02:33:01.174Z,15.00
2022-10-30T02:35:29.654Z,14.90
2022-10-30T02:37:56.858Z,14.80
2022-10-30T02:40:23.966Z,14.80
2022-10-30T02:42:54.731Z,14.70
2022-10-30T02:45:21.809Z,14.70
2022-10-30T02:47:48.593Z,14.60
2022-10-30T02:50:15.494Z,14.50
2022-10-30T02:52:42.513Z,14.50
2022-10-30T02:55:09.911Z,14.50
2022-10-30T02:57:37.375Z,14.40
2022-10-30T03:00:04.964Z,14.40
2022-10-30T03:02:31.687Z,14.40
2022-10-30T03:04:58.563Z,14.30
2022-10-30T03:07:25.232Z,14.30
2022-10-30T03:09:54.169Z,14.30
2022-10-30T03:12:21.778Z,14.30
2022-10-30T03:14:48.674Z,14.20
2022-10-30T03:17:15.375Z,14.30
2022-10-30T03:19:42.227Z,14.20
2022-10-30T03:22:08.995Z,14.20
2022-10-30T03:24:35.922Z,14.30
2022-10-30T03:27:02.643Z,14.30
2022-10-30T03:29:29.805Z,14.30
2022-10-30T03:31:56.638Z,14.30
2022-10-30T03:34:23.403Z,14.40
2022-10-30T03:36:50.110Z,14.40
2022-10-30T03:39:16.817Z,14.40
2022-10-30T03:41:43.668Z,14.40
2022-10-30T03:44:10.356Z,14.50
2022-10-30T03:46:38.066Z,14.50
2022-10-30T03:49:04.752Z,14.50
2022-10-30T03:51:31.492Z,14.50
2022-10-30T03:53:58.395Z,14.50
2022-10-30T03:56:25.149Z,14.50
2022-10-30T03:58:52.036Z,14.50
2022-10-30T04:01:19.118Z,14.50
2022-10-30T04:03:46.044Z,14.40
2022-10-30T04:06:13.080Z,14.40
2022-10-30T04:08:39.831Z,14.30
2022-10-30T04:11:06.715Z,14.30
2022-10-30T04:13:33.650Z,14.30
2022-10-30T04:16:00.366Z,14.20
2022-10-30T04:18:27.233Z,14.30
2022-10-30T04:20:54.298Z,14.20
2022-10-30T04:23:22.520Z,14.20
2022-10-30T04:25:49.268Z,14.10
2022-10-30T04:28:16.151Z,14.10
2022-10-30T04:30:43.190Z,14.10
2022-10-30T04:33:13.677Z,14.10
2022-10-30T04:35:41.418Z,14.00
2022-10-30T04:38:13.398Z,14.00
2022-10-30T04:40:41.740Z,13.90
2022-10-30T04:43:09.589Z,13.90
2022-10-30T04:45:37.453Z,13.90
2022-10-30T04:48:13.028Z,13.80
2022-10-30T04:50:39.881Z,13.80
2022-10-30T04:53:10.380Z,13.70
2022-10-30T04:55:37.145Z,13.60
2022-10-30T04:58:03.914Z,13.50
2022-10-30T05:00:31.962Z,13.40
2022-10-30T05:03:00.869Z,13.40
2022-10-30T05:05:28.871Z,13.30
2022-10-30T05:07:56.126Z,13.40
2022-10-30T05:10:23.229Z,13.40
2022-10-30T05:12:55.769Z,13.40
2022-10-30T05:15:22.555Z,13.40
2022-10-30T05:17:53.634Z,13.30
2022-10-30T05:20:20.994Z,13.30
2022-10-30T05:22:57.458Z,13.20
2022-10-30T05:25:24.798Z,13.20
2022-10-30T05:27:57.716Z,13.10
2022-10-30T05:30:25.179Z,13.00
2022-10-30T05:32:57.305Z,13.00
2022-10-30T05:35:24.458Z,13.00
2022-10-30T05:37:51.351Z,12.90
2022-10-30T05:40:18.065Z,12.90
2022-10-30T05:42:48.913Z,12.80
2022-10-30T05:45:16.531Z,12.80
2022-10-30T05:47:43.843Z,12.70
2022-10-30T05:50:14.344Z,12.70
2022-10-30T05:52:41.020Z,12.70
2022-10-30T05:55:08.048Z,12.60
2022-10-30T05:57:34.744Z,12.60
2022-10-30T06:00:01.858Z,12.60
2022-10-30T06:02:28.652Z,12.50
2022-10-30T06:04:55.466Z,12.50
2022-10-30T06:07:22.160Z,12.50
2022-10-30T06:09:49.128Z,12.50
2022-10-30T06:12:15.891Z,12.40
2022-10-30T06:14:42.551Z,12.40
2022-10-30T06:17:09.505Z,12.40
2022-10-30T06:19:36.150Z,12.40
2022-10-30T06:22:02.858Z,12.40
2022-10-30T06:24:29.545Z,12.30
2022-10-30T06:26:56.277Z,12.30
2022-10-30T06:29:22.986Z,12.20
2022-10-30T06:31:50.043Z,12.20
2022-10-30T06:34:16.786Z,12.20
2022-10-30T06:36:43.541Z,12.10
2022-10-30T06:39:10.272Z,12.10
2022-10-30T06:41:37.053Z,12.10
2022-10-30T06:44:03.891Z,12.10
2022-10-30T06:46:33.585Z,12.10
2022-10-30T06:49:00.838Z,12.10
2022-10-30T06:51:27.744Z,12.10
2022-10-30T06:53:54.457Z,12.10
2022-10-30T06:56:21.302Z,12.10
2022-10-30T06:58:47.966Z,12.10
2022-10-30T07:01:14.684Z,12.10
2022-10-30T07:03:41.410Z,12.10
2022-10-30T07:06:08.173Z,12.10
2022-10-30T07:08:34.930Z,12.10
2022-10-30T07:11:01.608Z,12.10
2022-10-30T07:13:28.328Z,12.10
2022-10-30T07:15:55.018Z,12.20
2022-10-30T07:18:21.744Z,12.20
2022-10-30T07:20:48.947Z,12.30
2022-10-30T07:23:15.696Z,12.40
2022-10-30T07:25:42.814Z,12.40
2022-10-30T07:28:09.493Z,12.40
2022-10-30T07:30:36.390Z,12.50
2022-10-30T07:33:05.665Z,12.50
2022-10-30T07:35:34.690Z,12.60
2022-10-30T07:38:04.741Z,12.60
2022-10-30T07:40:32.149Z,12.70
2022-10-30T07:43:01.445Z,12.80
2022-10-30T07:45:28.960Z,12.80
2022-10-30T07:47:56.399Z,13.00
2022-10-30T07:50:24.677Z,13.10
2022-10-30T07:52:51.377Z,13.20
2022-10-30T07:55:18.161Z,13.40
2022-10-30T07:57:44.818Z,13.50
2022-10-30T08:00:13.889Z,13.60
2022-10-30T08:02:41.256Z,13.80
2022-10-30T08:05:08.736Z,13.80
2022-10-30T08:07:37.349Z,14.00
2022-10-30T08:10:05.308Z,14.10
2022-10-30T08:12:34.012Z,14.30
2022-10-30T08:15:01.253Z,14.50
2022-10-30T08:17:28.194Z,14.70
2022-10-30T08:19:55.890Z,14.80
2022-10-30T08:22:23.041Z,15.00
2022-10-30T08:24:49.761Z,15.10
2022-10-30T08:27:16.682Z,15.20
2022-10-30T08:29:43.415Z,15.30
2022-10-30T08:32:10.106Z,15.40
2022-10-30T08:34:36.925Z,15.60
2022-10-30T08:37:03.681Z,15.70
2022-10-30T08:39:30.383Z,15.90
2022-10-30T08:41:59.077Z,16.00
2022-10-30T08:44:26.269Z,16.20
2022-10-30T08:46:52.975Z,16.30
2022-10-30T08:49:19.715Z,16.50
2022-10-30T08:51:46.572Z,16.50
2022-10-30T08:54:13.276Z,16.70
2022-10-30T08:56:39.980Z,16.70
2022-10-30T08:59:06.659Z,16.90
2022-10-30T09:01:33.737Z,17.00
2022-10-30T09:04:00.486Z,17.20
2022-10-30T09:06:27.212Z,17.30
2022-10-30T09:08:53.892Z,17.40
2022-10-30T09:11:20.568Z,17.50
2022-10-30T09:13:47.323Z,17.70
2022-10-30T09:16:14.031Z,17.70
2022-10-30T09:18:41.735Z,17.90
2022-10-30T09:21:08.399Z,18.20
2022-10-30T09:23:35.118Z,18.30
2022-10-30T09:26:01.822Z,18.40
2022-10-30T09:28:28.510Z,18.50
2022-10-30T09:30:57.075Z,18.50
2022-10-30T09:33:23.766Z,18.70
2022-10-30T09:35:50.550Z,18.80
2022-10-30T09:38:17.477Z,18.90
2022-10-30T09:41:05.241Z,19.20
2022-10-30T09:44:11.531Z,19.20
2022-10-30T09:47:08.944Z,19.20
2022-10-30T09:49:58.366Z,19.40
2022-10-30T09:52:28.121Z,19.40
2022-10-30T09:55:05.859Z,19.60
2022-10-30T09:58:01.052Z,19.80
2022-10-30T10:00:37.930Z,19.90
2022-10-30T10:03:28.535Z,20.10
2022-10-30T10:06:00.559Z,20.30
2022-10-30T10:08:46.327Z,20.40
2022-10-30T10:11:20.209Z,20.60
2022-10-30T10:14:01.636Z,20.90
2022-10-30T10:16:36.621Z,21.00
2022-10-30T10:19:14.184Z,21.10
2022-10-30T10:21:58.427Z,21.20
2022-10-30T10:24:47.490Z,21.30
2022-10-30T10:27:45.629Z,21.40
2022-10-30T10:30:18.189Z,21.40
2022-10-30T10:33:07.247Z,21.50
2022-10-30T10:35:36.846Z,21.50
2022-10-30T10:38:22.131Z,21.70
2022-10-30T10:40:51.605Z,21.90
2022-10-30T10:43:36.946Z,21.90
2022-10-30T10:46:15.587Z,21.80
2022-10-30T10:48:51.125Z,21.90
2022-10-30T10:51:22.297Z,21.90
2022-10-30T10:53:57.294Z,21.90
2022-10-30T10:56:30.070Z,22.10
2022-10-30T10:59:22.427Z,22.20
2022-10-30T11:02:00.357Z,22.40
2022-10-30T11:04:46.745Z,22.60
2022-10-30T11:07:23.179Z,22.70
2022-10-30T11:09:54.684Z,22.80
2022-10-30T11:12:37.530Z,22.90
2022-10-30T11:15:33.085Z,22.70
2022-10-30T11:18:08.623Z,22.90
2022-10-30T11:20:42.142Z,23.00
2022-10-30T11:23:32.188Z,23.10
2022-10-30T11:25:59.269Z,22.90
2022-10-30T11:28:38.170Z,22.70
2022-10-30T11:31:24.018Z,22.60
2022-10-30T11:33:51.785Z,22.50
2022-10-30T11:36:26.131Z,22.50
2022-10-30T11:38:57.358Z,22.50
2022-10-30T11:41:25.790Z,22.70
2022-10-30T11:43:52.796Z,22.70
2022-10-30T11:46:24.364Z,22.70
2022-10-30T11:48:54.969Z,22.60
2022-10-30T11:51:38.755Z,22.50
2022-10-30T11:54:07.570Z,22.60
2022-10-30T11:56:36.958Z,22.70
2022-10-30T11:59:05.522Z,22.80
2022-10-30T12:01:36.040Z,22.80
2022-10-30T12:04:35.481Z,22.90
2022-10-30T12:07:20.036Z,22.90
2022-10-30T12:09:48.494Z,23.00
2022-10-30T12:12:21.707Z,23.00
2022-10-30T12:14:48.795Z,23.10
2022-10-30T12:17:18.010Z,23.10
2022-10-30T12:19:54.896Z,23.00
2022-10-30T12:22:31.693Z,23.00
2022-10-30T12:25:02.554Z,22.90
2022-10-30T12:27:31.467Z,23.00
2022-10-30T12:30:09.602Z,23.20
2022-10-30T12:33:09.200Z,23.30
2022-10-30T12:35:41.925Z,23.60
2022-10-30T12:38:22.833Z,23.50
2022-10-30T12:41:20.042Z,23.50
2022-10-30T12:43:56.492Z,23.60
2022-10-30T12:46:40.688Z,23.60
2022-10-30T12:49:28.419Z,23.60
2022-10-30T12:52:07.435Z,23.60
2022-10-30T12:54:55.054Z,23.60
2022-10-30T12:57:25.914Z,23.60
2022-10-30T13:00:03.865Z,23.60
2022-10-30T13:02:50.606Z,23.60
2022-10-30T13:05:31.488Z,23.40
2022-10-30T13:08:20.652Z,23.40
2022-10-30T13:10:54.009Z,23.20
2022-10-30T13:13:28.166Z,23.10
2022-10-30T13:15:58.005Z,22.80
2022-10-30T13:18:32.492Z,22.60
2022-10-30T13:21:07.604Z,22.50
2022-10-30T13:23:53.150Z,22.50
2022-10-30T13:26:32.604Z,22.40
2022-10-30T13:29:11.977Z,22.40
2022-10-30T13:31:53.261Z,22.20
2022-10-30T13:34:33.876Z,22.20
2022-10-30T13:37:05.732Z,22.20
2022-10-30T13:40:01.713Z,22.30
2022-10-30T13:42:59.824Z,22.40
2022-10-30T13:45:36.999Z,22.40
2022-10-30T13:48:29.995Z,22.50
2022-10-30T13:51:12.029Z,22.50
2022-10-30T13:53:42.657Z,22.40
2022-10-30T13:56:16.604Z,22.40
2022-10-30T13:58:46.626Z,22.40
2022-10-30T14:01:46.672Z,22.40
2022-10-30T14:04:27.225Z,22.40
2022-10-30T14:07:03.761Z,22.30
2022-10-30T14:09:44.249Z,22.30
2022-10-30T14:12:55.041Z,22.30
2022-10-30T14:15:31.163Z,22.30
2022-10-30T14:18:12.882Z,22.30
2022-10-30T14:20:47.388Z,22.30
2022-10-30T14:23:24.774Z,22.30
2022-10-30T14:26:06.973Z,22.20
2022-10-30T14:28:45.209Z,22.10
2022-10-30T14:31:18.002Z,22.00
2022-10-30T14:33:47.987Z,21.80
2022-10-30T14:36:24.177Z,21.70
2022-10-30T14:39:09.814Z,21.60
2022-10-30T14:42:00.894Z,21.60
2022-10-30T14:44:55.723Z,21.60
2022-10-30T14:47:28.454Z,21.60
2022-10-30T14:50:21.641Z,21.50
2022-10-30T14:52:48.467Z,21.40
2022-10-30T14:55:35.793Z,21.30
2022-10-30T14:58:02.524Z,21.20
2022-10-30T15:00:35.316Z,21.10
2022-10-30T15:03:16.286Z,21.00
2022-10-30T15:05:44.906Z,20.90
2022-10-30T15:08:31.765Z,20.80
2022-10-30T15:11:04.444Z,20.70
2022-10-30T15:13:31.150Z,20.80
2022-10-30T15:16:05.368Z,20.70
2022-10-30T15:18:32.290Z,20.60
2022-10-30T15:21:04.928Z,20.60
2022-10-30T15:23:34.289Z,20.60
2022-10-30T15:26:09.563Z,20.50
2022-10-30T15:28:38.660Z,20.50
2022-10-30T15:31:06.410Z,20.50
2022-10-30T15:33:37.633Z,20.40
2022-10-30T15:36:16.809Z,20.40
2022-10-30T15:38:43.759Z,20.30
2022-10-30T15:41:11.112Z,20.30
2022-10-30T15:43:41.481Z,20.20
2022-10-30T15:46:12.210Z,20.10
2022-10-30T15:48:45.434Z,20.10
2022-10-30T15:51:23.156Z,19.90
2022-10-30T15:54:01.802Z,19.80
2022-10-30T15:56:41.111Z,19.70
2022-10-30T15:59:21.957Z,19.60
2022-10-30T16:01:49.304Z,19.50
2022-10-30T16:04:31.362Z,19.50
2022-10-30T16:07:04.371Z,19.30
2022-10-30T16:09:31.101Z,19.20
2022-10-30T16:11:59.896Z,19.10
2022-10-30T16:14:29.119Z,19.00
2022-10-30T16:17:00.258Z,18.90
2022-10-30T16:19:31.015Z,18.80
2022-10-30T16:21:59.309Z,18.70
2022-10-30T16:24:35.825Z,18.50
2022-10-30T16:27:05.018Z,18.40
2022-10-30T16:29:33.844Z,18.30
2022-10-30T16:32:01.648Z,18.20
2022-10-30T16:34:31.923Z,18.20
2022-10-30T16:36:59.950Z,18.10
2022-10-30T16:39:27.753Z,17.90
2022-10-30T16:41:59.364Z,17.80
2022-10-30T16:44:37.587Z,17.70
2022-10-30T16:47:13.496Z,17.60
2022-10-30T16:49:49.665Z,17.60
2022-10-30T16:52:17.705Z,17.50
2022-10-30T16:54:59.846Z,17.40
2022-10-30T16:57:29.666Z,17.30
2022-10-30T16:59:57.609Z,17.20
2022-10-30T17:02:28.267Z,17.10
2022-10-30T17:05:09.422Z,17.00
2022-10-30T17:07:38.426Z,16.90
2022-10-30T17:10:33.273Z,16.80
2022-10-30T17:13:31.069Z,16.70
2022-10-30T17:15:59.213Z,16.70
2022-10-30T17:18:34.220Z,16.60
2022-10-30T17:21:08.101Z,16.50
2022-10-30T17:23:35.750Z,16.50
2022-10-30T17:26:12.873Z,16.40
2022-10-30T17:28:40.635Z,16.30
2022-10-30T17:31:29.683Z,16.30
2022-10-30T17:34:14.963Z,16.20
2022-10-30T17:36:41.879Z,16.20
2022-10-30T17:39:15.024Z,16.10
2022-10-30T17:41:43.170Z,16.10
2022-10-30T17:44:21.542Z,16.10
2022-10-30T17:46:49.177Z,16.10
2022-10-30T17:49:28.766Z,16.00
2022-10-30T17:51:55.933Z,16.00
2022-10-30T17:54:22.939Z,16.00
2022-10-30T17:56:50.007Z,16.00
2022-10-30T17:59:17.042Z,16.10
2022-10-30T18:01:43.781Z,16.10
2022-10-30T18:04:19.678Z,16.10
2022-10-30T18:06:47.938Z,16.10
2022-10-30T18:09:14.733Z,16.20
2022-10-30T18:11:41.380Z,16.30
2022-10-30T18:14:11.083Z,16.30
2022-10-30T18:16:38.052Z,16.40
2022-10-30T18:19:08.961Z,16.50
2022-10-30T18:21:35.629Z,16.40
2022-10-30T18:24:02.419Z,16.50
2022-10-30T18:26:30.568Z,16.50
2022-10-30T18:29:00.442Z,16.50
2022-10-30T18:31:27.156Z,16.50
2022-10-30T18:33:53.903Z,16.40
2022-10-30T18:36:23.344Z,16.40
2022-10-30T18:38:50.743Z,16.40
2022-10-30T18:41:21.471Z,16.40
2022-10-30T18:43:48.645Z,16.30
2022-10-30T18:46:16.957Z,16.30
2022-10-30T18:48:44.701Z,16.30
2022-10-30T18:51:17.444Z,16.20
2022-10-30T18:53:51.302Z,16.20
2022-10-30T18:56:29.393Z,16.20
2022-10-30T18:59:00.539Z,16.10
2022-10-30T19:01:32.939Z,16.00
2022-10-30T19:04:06.422Z,16.00
2022-10-30T19:06:38.357Z,16.00
2022-10-30T19:09:05.315Z,16.00
2022-10-30T19:11:32.335Z,16.00
2022-10-30T19:13:59.193Z,15.90
2022-10-30T19:16:26.117Z,15.90
2022-10-30T19:18:53.533Z,16.00
2022-10-30T19:21:22.700Z,16.00
2022-10-30T19:23:49.761Z,16.00
2022-10-30T19:26:17.408Z,16.00
2022-10-30T19:28:45.092Z,15.90
2022-10-30T19:31:17.192Z,15.90
2022-10-30T19:33:44.615Z,15.90
2022-10-30T19:36:28.204Z,15.90
2022-10-30T19:38:55.869Z,15.90
2022-10-30T19:41:24.734Z,15.90
2022-10-30T19:43:52.292Z,15.80
2022-10-30T19:46:19.056Z,15.80
2022-10-30T19:49:01.111Z,15.80
2022-10-30T19:51:28.811Z,15.80
2022-10-30T19:53:56.055Z,15.70
2022-10-30T19:56:22.904Z,15.70
2022-10-30T19:58:50.088Z,15.70
2022-10-30T20:01:21.500Z,15.60
2022-10-30T20:03:48.208Z,15.60
2022-10-30T20:06:15.338Z,15.60
2022-10-30T20:08:42.272Z,15.50
2022-10-30T20:11:09.006Z,15.50
2022-10-30T20:13:37.033Z,15.40
2022-10-30T20:16:05.493Z,15.40
2022-10-30T20:18:35.038Z,15.40
2022-10-30T20:21:11.127Z,15.40
2022-10-30T20:23:38.652Z,15.40
2022-10-30T20:26:15.492Z,15.40
2022-10-30T20:28:44.044Z,15.40
2022-10-30T20:31:12.484Z,15.30
2022-10-30T20:33:39.552Z,15.30
2022-10-30T20:36:06.538Z,15.30
2022-10-30T20:38:34.212Z,15.30
2022-10-30T20:41:02.743Z,15.20
2022-10-30T20:43:30.688Z,15.10
2022-10-30T20:45:59.117Z,15.20
2022-10-30T20:48:26.640Z,15.10
2022-10-30T20:50:54.259Z,15.10
2022-10-30T20:53:20.905Z,15.20
2022-10-30T20:55:47.828Z,15.20
2022-10-30T20:58:14.926Z,15.30
2022-10-30T21:00:41.925Z,15.30
2022-10-30T21:03:10.955Z,15.30
2022-10-30T21:05:43.847Z,15.30
2022-10-30T21:08:12.158Z,15.30
2022-10-30T21:10:39.142Z,15.30
2022-10-30T21:13:08.857Z,15.40
2022-10-30T21:15:41.293Z,15.30
2022-10-30T21:18:08.902Z,15.30
2022-10-30T21:20:36.481Z,15.30
2022-10-30T21:23:03.573Z,15.30
2022-10-30T21:25:32.197Z,15.30
2022-10-30T21:27:59.737Z,15.30
2022-10-30T21:30:26.534Z,15.30
2022-10-30T21:32:53.516Z,15.30
2022-10-30T21:35:20.191Z,15.30
2022-10-30T21:37:46.999Z,15.20
2022-10-30T21:40:14.017Z,15.20
2022-10-30T21:42:40.650Z,15.10
2022-10-30T21:45:08.321Z,15.10
2022-10-30T21:47:35.045Z,15.00
2022-10-30T21:50:05.992Z,15.00
2022-10-30T21:52:34.884Z,14.90
2022-10-30T21:55:01.784Z,14.90
2022-10-30T21:57:29.303Z,14.90
2022-10-30T21:59:58.709Z,14.80
2022-10-30T22:02:28.376Z,14.90
2022-10-30T22:04:55.107Z,14.90
2022-10-30T22:07:22.039Z,14.90
2022-10-30T22:09:48.730Z,14.90
2022-10-30T22:12:15.402Z,14.80
2022-10-30T22:14:42.081Z,14.80
2022-10-30T22:17:08.806Z,14.80
2022-10-30T22:19:36.652Z,14.80
2022-10-30T22:22:03.258Z,14.80
2022-10-30T22:24:29.926Z,14.80
2022-10-30T22:26:56.545Z,14.80
2022-10-30T22:29:23.185Z,14.70
2022-10-30T22:31:50.117Z,14.70
2022-10-30T22:34:16.951Z,14.70
2022-10-30T22:36:43.569Z,14.70
2022-10-30T22:39:14.210Z,14.70
2022-10-30T22:41:41.320Z,14.70
2022-10-30T22:44:12.042Z,14.60
2022-10-30T22:46:39.266Z,14.60
2022-10-30T22:49:06.945Z,14.60
2022-10-30T22:51:35.469Z,14.60
2022-10-30T22:54:04.118Z,14.60
2022-10-30T22:56:36.244Z,14.60
2022-10-30T22:59:04.742Z,14.50
2022-10-30T23:01:33.905Z,14.50
2022-10-30T23:04:01.847Z,14.40
2022-10-30T23:06:30.477Z,14.40
2022-10-30T23:08:58.588Z,14.40
2022-10-30T23:11:26.173Z,14.40
2022-10-30T23:13:53.416Z,14.40
2022-10-30T23:16:22.960Z,14.30
2022-10-30T23:18:50.891Z,14.40
2022-10-30T23:21:23.594Z,14.40
2022-10-30T23:23:50.771Z,14.30
2022-10-30T23:26:21.263Z,14.40
2022-10-30T23:28:49.836Z,14.40
2022-10-30T23:31:24.760Z,14.40
2022-10-30T23:33:53.501Z,14.40
2022-10-30T23:36:21.096Z,14.50
2022-10-30T23:38:58.919Z,14.50
2022-10-30T23:41:29.247Z,14.50
2022-10-30T23:43:57.970Z,14.50
2022-10-30T23:46:24.681Z,14.50
2022-10-30T23:48:51.761Z,14.60
2022-10-30T23:51:18.944Z,14.50
2022-10-30T23:53:45.590Z,14.50
2022-10-30T23:56:12.499Z,14.50
2022-10-30T23:58:39.171Z,14.40
